createdAt,value
2022-08-26T00:01:54.526Z,42.00
2022-08-26T00:04:24.984Z,42.43
2022-08-26T00:06:53.884Z,42.24
2022-08-26T00:09:20.907Z,42.13
2022-08-26T00:11:47.680Z,42.28
2022-08-26T00:14:16.319Z,42.47
2022-08-26T00:16:47.587Z,42.20
2022-08-26T00:19:18.155Z,42.31
2022-08-26T00:21:46.572Z,42.32
2022-08-26T00:24:16.569Z,42.81
2022-08-26T00:26:44.126Z,42.53
2022-08-26T00:29:12.190Z,42.44
2022-08-26T00:31:39.943Z,42.67
2022-08-26T00:34:07.396Z,42.61
2022-08-26T00:36:37.353Z,42.90
2022-08-26T00:39:07.414Z,42.80
2022-08-26T00:41:37.899Z,42.79
2022-08-26T00:44:05.596Z,42.91
2022-08-26T00:46:46.442Z,42.87
2022-08-26T00:49:35.711Z,43.17
2022-08-26T00:52:09.705Z,43.33
2022-08-26T00:54:46.787Z,43.06
2022-08-26T00:57:18.445Z,43.17
2022-08-26T00:59:54.274Z,43.01
2022-08-26T01:02:21.822Z,43.48
2022-08-26T01:04:58.820Z,43.49
2022-08-26T01:07:30.423Z,43.35
2022-08-26T01:10:02.356Z,43.49
2022-08-26T01:12:40.198Z,43.39
2022-08-26T01:15:13.608Z,43.65
2022-08-26T01:17:41.457Z,43.43
2022-08-26T01:20:57.967Z,43.49
2022-08-26T01:23:33.777Z,43.47
2022-08-26T01:26:18.252Z,43.66
2022-08-26T01:28:51.678Z,43.57
2022-08-26T01:31:24.915Z,44.06
2022-08-26T01:34:13.790Z,44.02
2022-08-26T01:36:41.308Z,44.45
2022-08-26T01:39:09.817Z,44.35
2022-08-26T01:41:40.493Z,44.44
2022-08-26T01:44:22.672Z,43.83
2022-08-26T01:46:53.062Z,44.44
2022-08-26T01:49:22.806Z,44.38
2022-08-26T01:51:56.629Z,44.51
2022-08-26T01:54:25.491Z,44.68
2022-08-26T01:56:54.524Z,44.74
2022-08-26T01:59:23.928Z,44.49
2022-08-26T02:01:51.461Z,44.60
2022-08-26T02:04:50.026Z,44.60
2022-08-26T02:07:19.702Z,44.93
2022-08-26T02:09:48.643Z,45.06
2022-08-26T02:12:19.395Z,44.88
2022-08-26T02:14:54.049Z,45.34
2022-08-26T02:17:32.172Z,45.20
2022-08-26T02:19:59.437Z,45.42
2022-08-26T02:22:26.342Z,45.43
2022-08-26T02:25:18.447Z,45.70
2022-08-26T02:27:47.555Z,45.82
2022-08-26T02:30:26.869Z,46.17
2022-08-26T02:32:58.907Z,46.31
2022-08-26T02:35:26.383Z,46.40
2022-08-26T02:37:53.642Z,46.92
2022-08-26T02:40:26.488Z,46.76
2022-08-26T02:42:56.073Z,46.60
2022-08-26T02:45:26.393Z,46.75
2022-08-26T02:47:55.685Z,46.70
2022-08-26T02:50:25.766Z,46.77
2022-08-26T02:52:53.519Z,46.76
2022-08-26T02:55:20.830Z,47.08
2022-08-26T02:57:52.358Z,46.98
2022-08-26T03:00:19.511Z,47.21
2022-08-26T03:02:46.408Z,47.13
2022-08-26T03:05:13.352Z,47.42
2022-08-26T03:07:40.140Z,46.76
2022-08-26T03:10:08.852Z,46.98
2022-08-26T03:12:36.186Z,47.22
2022-08-26T03:15:03.518Z,47.14
2022-08-26T03:17:47.596Z,47.15
2022-08-26T03:20:17.342Z,47.24
2022-08-26T03:22:45.405Z,47.34
2022-08-26T03:25:15.968Z,47.58
2022-08-26T03:27:43.297Z,47.59
2022-08-26T03:30:31.324Z,47.68
2022-08-26T03:32:59.058Z,47.75
2022-08-26T03:35:26.199Z,47.70
2022-08-26T03:37:53.846Z,47.69
2022-08-26T03:40:21.500Z,47.77
2022-08-26T03:42:50.158Z,47.74
2022-08-26T03:45:18.963Z,48.07
2022-08-26T03:47:47.442Z,47.98
2022-08-26T03:50:22.602Z,48.32
2022-08-26T03:52:52.469Z,48.48
2022-08-26T03:55:26.220Z,48.02
2022-08-26T03:57:54.673Z,47.98
2022-08-26T04:00:22.858Z,48.09
2022-08-26T04:03:00.997Z,48.45
2022-08-26T04:05:28.334Z,48.21
2022-08-26T04:07:55.161Z,48.18
2022-08-26T04:10:29.084Z,48.32
2022-08-26T04:13:06.164Z,48.43
2022-08-26T04:15:33.114Z,48.78
2022-08-26T04:18:00.701Z,48.85
2022-08-26T04:20:28.411Z,48.71
2022-08-26T04:22:55.213Z,48.43
2022-08-26T04:25:22.521Z,48.83
2022-08-26T04:27:51.327Z,48.93
2022-08-26T04:30:19.931Z,49.34
2022-08-26T04:32:46.759Z,49.17
2022-08-26T04:35:13.521Z,49.17
2022-08-26T04:37:42.662Z,49.26
2022-08-26T04:40:11.173Z,49.37
2022-08-26T04:42:38.120Z,49.39
2022-08-26T04:45:10.138Z,49.25
2022-08-26T04:47:38.643Z,49.55
2022-08-26T04:50:07.709Z,49.13
2022-08-26T04:52:36.512Z,49.30
2022-08-26T04:55:04.797Z,49.47
2022-08-26T04:57:33.869Z,49.35
2022-08-26T05:00:00.653Z,49.52
2022-08-26T05:02:28.110Z,49.53
2022-08-26T05:04:54.914Z,49.42
2022-08-26T05:07:21.695Z,49.93
2022-08-26T05:09:49.226Z,49.86
2022-08-26T05:12:16.004Z,49.53
2022-08-26T05:14:43.376Z,49.39
2022-08-26T05:17:10.257Z,49.74
2022-08-26T05:19:42.856Z,49.65
2022-08-26T05:22:09.977Z,49.51
2022-08-26T05:24:41.126Z,49.60
2022-08-26T05:27:11.684Z,49.58
2022-08-26T05:29:39.607Z,48.99
2022-08-26T05:32:07.031Z,49.04
2022-08-26T05:34:34.144Z,49.03
2022-08-26T05:37:01.840Z,48.92
2022-08-26T05:39:29.252Z,48.88
2022-08-26T05:41:56.182Z,48.74
2022-08-26T05:44:23.621Z,48.64
2022-08-26T05:46:51.588Z,48.59
2022-08-26T05:49:18.646Z,48.50
2022-08-26T05:51:47.463Z,48.71
2022-08-26T05:54:21.747Z,48.75
2022-08-26T05:56:49.632Z,48.86
2022-08-26T05:59:24.226Z,48.75
2022-08-26T06:01:53.491Z,48.79
2022-08-26T06:04:21.644Z,48.42
2022-08-26T06:06:48.550Z,48.57
2022-08-26T06:09:17.476Z,48.56
2022-08-26T06:11:45.196Z,48.25
2022-08-26T06:14:12.393Z,48.35
2022-08-26T06:16:45.018Z,48.44
2022-08-26T06:19:15.510Z,48.54
2022-08-26T06:21:47.339Z,48.81
2022-08-26T06:24:36.793Z,48.71
2022-08-26T06:27:09.575Z,48.90
2022-08-26T06:29:38.645Z,48.68
2022-08-26T06:32:06.723Z,48.63
2022-08-26T06:34:33.809Z,48.45
2022-08-26T06:37:06.360Z,48.35
2022-08-26T06:39:33.492Z,48.17
2022-08-26T06:42:02.749Z,48.19
2022-08-26T06:44:30.560Z,47.95
2022-08-26T06:46:59.197Z,47.97
2022-08-26T06:49:27.501Z,47.90
2022-08-26T06:51:58.395Z,47.90
2022-08-26T06:54:26.497Z,47.87
2022-08-26T06:56:53.798Z,47.82
2022-08-26T06:59:21.748Z,47.90
2022-08-26T07:01:49.774Z,47.67
2022-08-26T07:04:21.981Z,47.68
2022-08-26T07:06:52.908Z,47.57
2022-08-26T07:09:27.036Z,47.53
2022-08-26T07:11:56.352Z,47.28
2022-08-26T07:14:24.345Z,47.27
2022-08-26T07:16:51.720Z,47.23
2022-08-26T07:19:29.928Z,47.24
2022-08-26T07:22:05.075Z,46.56
2022-08-26T07:24:35.214Z,46.53
2022-08-26T07:27:06.725Z,46.05
2022-08-26T07:29:35.576Z,46.22
2022-08-26T07:32:03.495Z,45.58
2022-08-26T07:34:32.262Z,45.51
2022-08-26T07:37:00.532Z,45.55
2022-08-26T07:39:28.216Z,45.04
2022-08-26T07:41:59.225Z,44.88
2022-08-26T07:44:27.746Z,45.10
2022-08-26T07:46:54.927Z,44.64
2022-08-26T07:49:24.465Z,44.50
2022-08-26T07:51:53.836Z,43.92
2022-08-26T07:54:27.097Z,43.96
2022-08-26T07:56:54.618Z,43.34
2022-08-26T07:59:23.742Z,43.79
2022-08-26T08:01:51.107Z,43.58
2022-08-26T08:04:25.516Z,43.48
2022-08-26T08:06:54.412Z,43.40
2022-08-26T08:09:22.513Z,43.49
2022-08-26T08:11:49.839Z,43.14
2022-08-26T08:14:19.670Z,43.27
2022-08-26T08:16:53.611Z,42.46
2022-08-26T08:19:21.924Z,42.79
2022-08-26T08:21:49.177Z,42.43
2022-08-26T08:24:16.049Z,42.00
2022-08-26T08:26:42.885Z,42.01
2022-08-26T08:29:09.787Z,41.64
2022-08-26T08:34:26.600Z,41.22
2022-08-26T08:36:54.379Z,41.19
2022-08-26T08:39:22.182Z,41.33
2022-08-26T08:42:23.663Z,40.71
2022-08-26T08:44:56.991Z,40.84
2022-08-26T08:47:42.808Z,40.50
2022-08-26T08:50:21.429Z,40.13
2022-08-26T08:53:11.118Z,40.04
2022-08-26T08:56:03.223Z,39.89
2022-08-26T08:59:07.831Z,39.67
2022-08-26T09:02:22.338Z,39.29
2022-08-26T09:04:52.257Z,39.25
2022-08-26T09:07:27.191Z,39.03
2022-08-26T09:10:25.997Z,38.73
2022-08-26T09:12:52.901Z,38.50
2022-08-26T09:15:30.466Z,38.55
2022-08-26T09:18:11.050Z,38.06
2022-08-26T09:21:03.550Z,38.24
2022-08-26T09:23:35.789Z,38.16
2022-08-26T09:26:42.386Z,37.47
2022-08-26T09:29:23.647Z,37.89
2022-08-26T09:31:53.176Z,37.03
2022-08-26T09:34:25.481Z,37.27
2022-08-26T09:37:00.365Z,37.33
2022-08-26T09:39:37.704Z,37.36
2022-08-26T09:42:07.681Z,36.55
2022-08-26T09:44:56.759Z,36.28
2022-08-26T09:47:32.120Z,36.44
2022-08-26T09:50:33.200Z,36.02
2022-08-26T09:53:12.891Z,36.28
2022-08-26T09:55:47.609Z,35.59
2022-08-26T09:58:37.934Z,35.52
2022-08-26T10:01:23.757Z,35.12
2022-08-26T10:03:51.814Z,35.11
2022-08-26T10:06:21.194Z,35.34
2022-08-26T10:08:54.925Z,35.19
2022-08-26T10:11:45.769Z,35.84
2022-08-26T10:14:53.417Z,35.82
2022-08-26T10:17:30.826Z,35.63
2022-08-26T10:20:23.103Z,36.12
2022-08-26T10:23:14.809Z,35.96
2022-08-26T10:26:24.877Z,36.15
2022-08-26T10:29:12.234Z,35.86
2022-08-26T10:32:02.558Z,36.03
2022-08-26T10:34:33.255Z,35.83
2022-08-26T10:37:22.712Z,35.38
2022-08-26T10:39:58.881Z,35.91
2022-08-26T10:42:37.444Z,35.88
2022-08-26T10:45:25.123Z,35.79
2022-08-26T10:48:10.861Z,35.70
2022-08-26T10:50:43.855Z,35.25
2022-08-26T10:53:24.986Z,35.56
2022-08-26T10:56:49.431Z,35.07
2022-08-26T11:00:36.436Z,35.01
2022-08-26T11:03:29.372Z,34.48
2022-08-26T11:06:27.465Z,34.17
2022-08-26T11:09:03.603Z,34.38
2022-08-26T11:11:39.400Z,34.61
2022-08-26T11:14:08.421Z,33.88
2022-08-26T11:16:47.869Z,34.36
2022-08-26T11:20:02.235Z,34.41
2022-08-26T11:22:47.377Z,34.04
2022-08-26T11:25:19.465Z,32.95
2022-08-26T11:27:52.261Z,33.77
2022-08-26T11:30:20.168Z,33.43
2022-08-26T11:32:57.167Z,33.37
2022-08-26T11:35:24.493Z,33.87
2022-08-26T11:37:57.284Z,33.78
2022-08-26T11:40:30.502Z,34.19
2022-08-26T11:43:07.191Z,33.71
2022-08-26T11:45:39.307Z,33.80
2022-08-26T11:48:21.852Z,33.86
2022-08-26T11:51:20.462Z,34.40
2022-08-26T11:53:47.485Z,34.54
2022-08-26T11:56:31.619Z,34.61
2022-08-26T11:59:07.324Z,34.13
2022-08-26T12:01:41.561Z,34.50
2022-08-26T12:04:26.874Z,34.78
2022-08-26T12:06:54.665Z,34.95
2022-08-26T12:09:34.449Z,34.92
2022-08-26T12:12:37.296Z,35.05
2022-08-26T12:15:17.004Z,35.07
2022-08-26T12:17:49.424Z,34.68
2022-08-26T12:20:53.958Z,34.33
2022-08-26T12:23:36.539Z,34.14
2022-08-26T12:26:23.545Z,34.48
2022-08-26T12:29:26.446Z,34.25
2022-08-26T12:32:17.645Z,32.93
2022-08-26T12:34:48.996Z,33.48
2022-08-26T12:37:16.407Z,32.89
2022-08-26T12:39:45.833Z,32.63
2022-08-26T12:42:12.558Z,33.28
2022-08-26T12:44:58.449Z,33.38
2022-08-26T12:47:42.492Z,32.92
2022-08-26T12:50:10.570Z,32.67
2022-08-26T12:52:56.242Z,33.04
2022-08-26T12:55:36.304Z,32.35
2022-08-26T12:58:18.379Z,32.31
2022-08-26T13:00:58.389Z,32.75
2022-08-26T13:03:36.946Z,32.17
2022-08-26T13:06:31.155Z,32.19
2022-08-26T13:09:06.324Z,31.68
2022-08-26T13:11:38.984Z,32.16
2022-08-26T13:14:24.979Z,31.44
2022-08-26T13:16:53.386Z,31.73
2022-08-26T13:19:24.010Z,31.35
2022-08-26T13:22:00.629Z,30.71
2022-08-26T13:24:44.044Z,30.24
2022-08-26T13:27:14.230Z,30.53
2022-08-26T13:29:41.606Z,29.74
2022-08-26T13:32:09.767Z,30.00
2022-08-26T13:34:38.103Z,29.87
2022-08-26T13:37:06.608Z,29.91
2022-08-26T13:39:33.676Z,29.72
2022-08-26T13:42:00.505Z,29.92
2022-08-26T13:44:27.718Z,30.12
2022-08-26T13:46:54.722Z,29.84
2022-08-26T13:49:22.504Z,29.69
2022-08-26T13:51:49.368Z,29.70
2022-08-26T13:54:16.284Z,29.40
2022-08-26T13:56:43.384Z,29.25
2022-08-26T13:59:11.121Z,28.86
2022-08-26T14:01:40.048Z,29.20
2022-08-26T14:04:08.016Z,28.76
2022-08-26T14:06:34.870Z,28.46
2022-08-26T14:09:01.760Z,28.50
2022-08-26T14:11:29.588Z,29.02
2022-08-26T14:14:05.864Z,28.48
2022-08-26T14:16:37.727Z,28.37
2022-08-26T14:19:24.591Z,28.32
2022-08-26T14:21:51.520Z,27.99
2022-08-26T14:24:18.349Z,28.57
2022-08-26T14:26:45.125Z,28.65
2022-08-26T14:29:14.726Z,28.44
2022-08-26T14:31:43.958Z,28.18
2022-08-26T14:34:14.075Z,27.55
2022-08-26T14:36:41.008Z,27.58
2022-08-26T14:39:12.871Z,27.80
2022-08-26T14:41:55.160Z,27.51
2022-08-26T14:44:32.764Z,27.40
2022-08-26T14:47:02.418Z,27.04
2022-08-26T14:49:31.069Z,27.17
2022-08-26T14:51:58.120Z,26.69
2022-08-26T14:54:24.985Z,26.75
2022-08-26T14:56:53.938Z,27.15
2022-08-26T14:59:25.370Z,27.31
2022-08-26T15:01:53.150Z,27.06
2022-08-26T15:04:20.710Z,27.27
2022-08-26T15:06:48.650Z,27.07
2022-08-26T15:09:16.301Z,27.46
2022-08-26T15:11:43.437Z,27.81
2022-08-26T15:14:19.058Z,27.90
2022-08-26T15:16:53.772Z,28.06
2022-08-26T15:19:21.557Z,28.09
2022-08-26T15:21:49.234Z,28.20
2022-08-26T15:24:19.926Z,28.07
2022-08-26T15:26:48.603Z,28.59
2022-08-26T15:29:16.744Z,28.48
2022-08-26T15:31:43.830Z,28.67
2022-08-26T15:34:16.385Z,28.41
2022-08-26T15:36:46.841Z,28.50
2022-08-26T15:39:17.179Z,29.30
2022-08-26T15:41:44.338Z,29.01
2022-08-26T15:44:12.753Z,29.49
2022-08-26T15:46:40.247Z,29.75
2022-08-26T15:49:07.668Z,29.89
2022-08-26T15:51:45.088Z,30.09
2022-08-26T15:54:15.883Z,30.52
2022-08-26T15:56:43.575Z,29.87
2022-08-26T15:59:11.704Z,30.46
2022-08-26T16:01:39.720Z,29.46
2022-08-26T16:04:07.314Z,30.39
2022-08-26T16:06:38.734Z,30.54
2022-08-26T16:09:06.911Z,30.49
2022-08-26T16:11:35.941Z,30.36
2022-08-26T16:14:04.483Z,30.64
2022-08-26T16:16:32.111Z,30.78
2022-08-26T16:19:00.562Z,30.92
2022-08-26T16:21:32.029Z,31.06
2022-08-26T16:23:59.810Z,30.77
2022-08-26T16:26:33.035Z,30.59
2022-08-26T16:29:02.542Z,31.46
2022-08-26T16:31:29.734Z,30.95
2022-08-26T16:33:56.752Z,31.71
2022-08-26T16:36:23.610Z,31.91
2022-08-26T16:38:56.338Z,32.43
2022-08-26T16:41:30.434Z,33.35
2022-08-26T16:43:57.723Z,33.83
2022-08-26T16:46:26.168Z,33.96
2022-08-26T16:48:55.944Z,34.51
2022-08-26T16:51:26.873Z,34.91
2022-08-26T16:53:56.161Z,34.86
2022-08-26T16:56:30.672Z,35.53
2022-08-26T16:59:03.298Z,36.08
2022-08-26T17:01:30.368Z,36.12
2022-08-26T17:03:57.240Z,36.37
2022-08-26T17:06:24.143Z,36.74
2022-08-26T17:08:51.491Z,37.08
2022-08-26T17:11:18.595Z,37.50
2022-08-26T17:13:45.438Z,37.92
2022-08-26T17:16:13.471Z,38.51
2022-08-26T17:18:40.648Z,38.85
2022-08-26T17:21:11.617Z,39.74
2022-08-26T17:23:40.911Z,39.88
2022-08-26T17:26:08.490Z,40.58
2022-08-26T17:28:36.074Z,41.53
2022-08-26T17:31:04.258Z,41.83
2022-08-26T17:33:32.481Z,41.69
2022-08-26T17:36:00.642Z,42.50
2022-08-26T17:38:29.027Z,42.58
2022-08-26T17:40:57.626Z,42.75
2022-08-26T17:43:27.161Z,42.69
2022-08-26T17:46:07.038Z,42.92
2022-08-26T17:48:36.733Z,42.67
2022-08-26T17:51:23.372Z,43.08
2022-08-26T17:53:52.150Z,42.95
2022-08-26T17:56:25.402Z,43.36
2022-08-26T17:58:56.489Z,43.58
2022-08-26T18:01:27.061Z,43.61
2022-08-26T18:04:00.114Z,43.75
2022-08-26T18:06:30.226Z,43.00
2022-08-26T18:08:58.041Z,43.17
2022-08-26T18:11:25.368Z,43.14
2022-08-26T18:13:53.151Z,42.47
2022-08-26T18:16:20.518Z,42.22
2022-08-26T18:18:51.906Z,42.14
2022-08-26T18:21:23.751Z,41.88
2022-08-26T18:23:53.090Z,42.20
2022-08-26T18:26:25.954Z,42.21
2022-08-26T18:28:53.394Z,40.90
2022-08-26T18:31:21.066Z,40.63
2022-08-26T18:33:48.316Z,40.76
2022-08-26T18:36:29.419Z,40.85
2022-08-26T18:38:57.275Z,41.00
2022-08-26T18:41:28.661Z,41.53
2022-08-26T18:43:56.665Z,41.32
2022-08-26T18:46:27.840Z,42.10
2022-08-26T18:48:56.502Z,42.17
2022-08-26T18:51:32.369Z,42.62
2022-08-26T18:54:02.896Z,42.77
2022-08-26T18:56:30.716Z,42.70
2022-08-26T18:58:59.709Z,43.07
2022-08-26T19:01:29.441Z,42.94
2022-08-26T19:03:58.789Z,43.42
2022-08-26T19:06:28.369Z,43.36
2022-08-26T19:08:57.863Z,44.09
2022-08-26T19:11:32.285Z,43.95
2022-08-26T19:14:10.178Z,43.76
2022-08-26T19:16:37.646Z,43.52
2022-08-26T19:19:05.485Z,44.11
2022-08-26T19:21:35.043Z,43.83
2022-08-26T19:24:07.128Z,44.27
2022-08-26T19:26:34.384Z,44.34
2022-08-26T19:29:01.654Z,44.68
2022-08-26T19:31:28.546Z,44.93
2022-08-26T19:33:56.571Z,44.96
2022-08-26T19:36:25.861Z,44.85
2022-08-26T19:38:54.422Z,45.26
2022-08-26T19:41:37.183Z,44.77
2022-08-26T19:44:11.554Z,44.18
2022-08-26T19:46:39.855Z,44.88
2022-08-26T19:49:06.824Z,44.92
2022-08-26T19:51:35.523Z,45.65
2022-08-26T19:54:03.137Z,46.37
2022-08-26T19:56:30.269Z,46.90
2022-08-26T19:58:58.006Z,46.93
2022-08-26T20:01:25.670Z,47.44
2022-08-26T20:03:53.069Z,47.11
2022-08-26T20:06:20.319Z,47.71
2022-08-26T20:08:48.200Z,47.36
2022-08-26T20:11:18.906Z,47.33
2022-08-26T20:13:47.334Z,47.61
2022-08-26T20:16:16.353Z,47.61
2022-08-26T20:19:04.035Z,47.69
2022-08-26T20:21:38.131Z,47.52
2022-08-26T20:24:14.187Z,47.74
2022-08-26T20:26:43.553Z,47.74
2022-08-26T20:29:13.341Z,47.53
2022-08-26T20:31:41.124Z,47.30
2022-08-26T20:34:08.097Z,47.34
2022-08-26T20:36:35.061Z,47.18
2022-08-26T20:39:01.920Z,47.20
2022-08-26T20:41:28.856Z,47.26
2022-08-26T20:43:57.005Z,47.44
2022-08-26T20:46:25.417Z,47.52
2022-08-26T20:48:53.884Z,47.99
2022-08-26T20:51:23.491Z,48.73
2022-08-26T20:53:51.109Z,48.70
2022-08-26T20:56:23.685Z,48.91
2022-08-26T20:58:54.200Z,48.97
2022-08-26T21:01:28.198Z,48.75
2022-08-26T21:03:57.005Z,49.07
2022-08-26T21:06:23.881Z,48.77
2022-08-26T21:08:50.950Z,48.66
2022-08-26T21:11:18.820Z,48.71
2022-08-26T21:14:04.516Z,48.92
2022-08-26T21:16:36.601Z,48.83
2022-08-26T21:19:06.640Z,49.18
2022-08-26T21:21:34.251Z,49.21
2022-08-26T21:24:01.179Z,49.69
2022-08-26T21:26:28.005Z,49.42
2022-08-26T21:28:54.970Z,49.40
2022-08-26T21:31:25.643Z,49.05
2022-08-26T21:33:53.212Z,49.18
2022-08-26T21:36:20.650Z,49.40
2022-08-26T21:38:48.009Z,49.72
2022-08-26T21:41:19.360Z,49.83
2022-08-26T21:43:48.860Z,49.87
2022-08-26T21:46:19.922Z,49.98
2022-08-26T21:49:00.254Z,50.04
2022-08-26T21:51:32.065Z,49.98
2022-08-26T21:54:00.854Z,50.22
2022-08-26T21:56:32.363Z,49.97
2022-08-26T21:59:00.611Z,50.33
2022-08-26T22:01:34.645Z,50.40
2022-08-26T22:04:03.990Z,50.58
2022-08-26T22:06:33.701Z,50.63
2022-08-26T22:09:01.285Z,50.75
2022-08-26T22:11:29.232Z,50.70
2022-08-26T22:13:56.930Z,50.83
2022-08-26T22:16:26.664Z,51.22
2022-08-26T22:18:54.703Z,51.55
2022-08-26T22:21:25.953Z,51.42
2022-08-26T22:23:58.037Z,51.42
2022-08-26T22:26:29.919Z,51.64
2022-08-26T22:28:59.535Z,51.59
2022-08-26T22:31:37.410Z,51.71
2022-08-26T22:34:08.805Z,51.97
2022-08-26T22:36:44.001Z,51.62
2022-08-26T22:39:14.451Z,51.59
2022-08-26T22:41:43.453Z,51.98
2022-08-26T22:44:12.218Z,51.90
2022-08-26T22:46:41.599Z,51.89
2022-08-26T22:49:12.391Z,51.78
2022-08-26T22:51:39.305Z,51.98
2022-08-26T22:54:06.523Z,52.08
2022-08-26T22:56:34.069Z,51.82
2022-08-26T22:59:00.986Z,51.69
2022-08-26T23:01:27.861Z,51.73
2022-08-26T23:03:54.674Z,51.56
2022-08-26T23:06:21.775Z,51.19
2022-08-26T23:08:49.308Z,51.38
2022-08-26T23:11:16.143Z,51.19
2022-08-26T23:13:43.039Z,51.54
2022-08-26T23:16:12.274Z,52.04
2022-08-26T23:18:40.832Z,51.90
2022-08-26T23:21:08.295Z,51.96
2022-08-26T23:23:35.575Z,52.00
2022-08-26T23:26:05.932Z,52.30
2022-08-26T23:28:35.092Z,52.12
2022-08-26T23:31:02.040Z,52.22
2022-08-26T23:33:49.125Z,52.21
2022-08-26T23:36:18.170Z,52.30
2022-08-26T23:38:48.127Z,52.69
2022-08-26T23:41:22.044Z,52.86
2022-08-26T23:43:49.985Z,53.00
2022-08-26T23:46:17.536Z,53.14
2022-08-26T23:48:44.893Z,53.17
2022-08-26T23:51:31.053Z,53.46
2022-08-26T23:53:58.163Z,53.75
2022-08-26T23:56:26.569Z,53.77
2022-08-26T23:58:54.249Z,53.66
